Terminal Aerodrome Forecast
Issued by NWS

Home | Current Version | Previous Version | Text Only | Print | Product List | Glossary On
Versions: 1 2 3 4 5 6 7 8 9 10 11 12 13 14 15 16
000
FTUS45 KABQ 181700
TAFSAF
TAF
KSAF 181721Z 1818/1918 36010KT P6SM SKC
     FM182200 12011KT P6SM SCT080
     FM190600 12010KT P6SM BKN060
     FM191400 02006KT P6SM BKN050=

USA.gov is the U.S. government's official web portal to all federal, state and local government web resources and services.